sensor_id;sensor_type;location;lat;lon;timestamp;pressure;altitude;pressure_sealevel;temperature;humidity
13734;BME280;43298;52.560;13.508;2023-12-22T00:01:34;96789.63;;;5.49;100.00
13734;BME280;43298;52.560;13.508;2023-12-22T00:04:01;96793.06;;;5.38;100.00
13734;BME280;43298;52.560;13.508;2023-12-22T00:06:28;96803.56;;;5.35;100.00
13734;BME280;43298;52.560;13.508;2023-12-22T00:08:54;96813.25;;;5.32;100.00
13734;BME280;43298;52.560;13.508;2023-12-22T00:11:20;96824.19;;;5.34;100.00
13734;BME280;43298;52.560;13.508;2023-12-22T00:13:46;96831.84;;;5.34;100.00
13734;BME280;43298;52.560;13.508;2023-12-22T00:16:12;96856.63;;;5.24;100.00
13734;BME280;43298;52.560;13.508;2023-12-22T00:18:38;96850.69;;;5.23;100.00
13734;BME280;43298;52.560;13.508;2023-12-22T00:21:04;96851.94;;;5.29;100.00
13734;BME280;43298;52.560;13.508;2023-12-22T00:23:30;96883.84;;;5.25;100.00
13734;BME280;43298;52.560;13.508;2023-12-22T00:26:01;96903.03;;;5.30;100.00
13734;BME280;43298;52.560;13.508;2023-12-22T00:28:27;96921.31;;;5.26;100.00
13734;BME280;43298;52.560;13.508;2023-12-22T00:30:53;96931.94;;;5.21;100.00
13734;BME280;43298;52.560;13.508;2023-12-22T00:33:20;96947.88;;;5.25;100.00
13734;BME280;43298;52.560;13.508;2023-12-22T00:35:46;96974.88;;;5.29;100.00
13734;BME280;43298;52.560;13.508;2023-12-22T00:38:12;96984.88;;;5.32;100.00
13734;BME280;43298;52.560;13.508;2023-12-22T00:40:38;97001.59;;;5.36;100.00
13734;BME280;43298;52.560;13.508;2023-12-22T00:43:04;97007.44;;;5.38;100.00
13734;BME280;43298;52.560;13.508;2023-12-22T00:45:30;97020.91;;;5.40;100.00
13734;BME280;43298;52.560;13.508;2023-12-22T00:47:57;97036.03;;;5.43;100.00
13734;BME280;43298;52.560;13.508;2023-12-22T00:50:23;97040.97;;;5.35;100.00
13734;BME280;43298;52.560;13.508;2023-12-22T00:52:49;97060.59;;;5.45;100.00
13734;BME280;43298;52.560;13.508;2023-12-22T00:55:15;97070.06;;;5.45;100.00
13734;BME280;43298;52.560;13.508;2023-12-22T00:57:41;97062.59;;;5.42;100.00
13734;BME280;43298;52.560;13.508;2023-12-22T01:00:07;97059.81;;;5.45;100.00
13734;BME280;43298;52.560;13.508;2023-12-22T01:02:36;97038.25;;;5.47;100.00
13734;BME280;43298;52.560;13.508;2023-12-22T01:05:02;97055.34;;;5.47;100.00
13734;BME280;43298;52.560;13.508;2023-12-22T01:07:27;97063.41;;;5.42;100.00
13734;BME280;43298;52.560;13.508;2023-12-22T01:09:53;97047.34;;;5.40;100.00
13734;BME280;43298;52.560;13.508;2023-12-22T01:12:19;97065.53;;;5.37;100.00
13734;BME280;43298;52.560;13.508;2023-12-22T01:14:45;97052.72;;;5.37;100.00
13734;BME280;43298;52.560;13.508;2023-12-22T01:17:11;97048.78;;;5.33;100.00
13734;BME280;43298;52.560;13.508;2023-12-22T01:19:37;97060.53;;;5.36;100.00
13734;BME280;43298;52.560;13.508;2023-12-22T01:22:03;97069.16;;;5.35;100.00
13734;BME280;43298;52.560;13.508;2023-12-22T01:24:28;97047.00;;;5.34;100.00
13734;BME280;43298;52.560;13.508;2023-12-22T01:26:54;97055.88;;;5.30;100.00
13734;BME280;43298;52.560;13.508;2023-12-22T01:29:20;97047.28;;;5.31;100.00
13734;BME280;43298;52.560;13.508;2023-12-22T01:31:46;97037.38;;;5.26;100.00
13734;BME280;43298;52.560;13.508;2023-12-22T01:34:12;97036.91;;;5.21;100.00
13734;BME280;43298;52.560;13.508;2023-12-22T01:36:37;97021.81;;;5.18;100.00
13734;BME280;43298;52.560;13.508;2023-12-22T01:39:03;97023.81;;;5.15;100.00
13734;BME280;43298;52.560;13.508;2023-12-22T01:41:30;96999.94;;;5.14;100.00
13734;BME280;43298;52.560;13.508;2023-12-22T01:43:55;96988.44;;;5.09;100.00
13734;BME280;43298;52.560;13.508;2023-12-22T01:46:21;96967.63;;;5.02;100.00
13734;BME280;43298;52.560;13.508;2023-12-22T01:48:47;96972.81;;;4.91;100.00
13734;BME280;43298;52.560;13.508;2023-12-22T01:51:13;96956.63;;;4.91;100.00
13734;BME280;43298;52.560;13.508;2023-12-22T01:53:39;96959.69;;;4.85;100.00
13734;BME280;43298;52.560;13.508;2023-12-22T01:56:05;96970.13;;;4.93;100.00
13734;BME280;43298;52.560;13.508;2023-12-22T01:58:34;96957.19;;;4.94;100.00
13734;BME280;43298;52.560;13.508;2023-12-22T02:01:01;96949.75;;;4.91;100.00
13734;BME280;43298;52.560;13.508;2023-12-22T02:03:28;96953.94;;;4.92;100.00
13734;BME280;43298;52.560;13.508;2023-12-22T02:05:54;96955.81;;;4.90;100.00
13734;BME280;43298;52.560;13.508;2023-12-22T02:08:21;96948.75;;;4.83;100.00
13734;BME280;43298;52.560;13.508;2023-12-22T02:10:48;96947.38;;;4.79;100.00
13734;BME280;43298;52.560;13.508;2023-12-22T02:13:14;96935.59;;;4.87;100.00
13734;BME280;43298;52.560;13.508;2023-12-22T02:15:40;96949.06;;;4.89;100.00
13734;BME280;43298;52.560;13.508;2023-12-22T02:18:14;96950.94;;;4.87;100.00
13734;BME280;43298;52.560;13.508;2023-12-22T02:20:42;96945.97;;;4.75;100.00
13734;BME280;43298;52.560;13.508;2023-12-22T02:23:10;96940.03;;;4.74;100.00
13734;BME280;43298;52.560;13.508;2023-12-22T02:25:35;96949.84;;;4.69;100.00
13734;BME280;43298;52.560;13.508;2023-12-22T02:28:09;96930.44;;;4.67;100.00
13734;BME280;43298;52.560;13.508;2023-12-22T02:30:56;96937.84;;;4.70;100.00
13734;BME280;43298;52.560;13.508;2023-12-22T02:33:23;96940.66;;;4.67;100.00
13734;BME280;43298;52.560;13.508;2023-12-22T02:35:52;96947.75;;;4.63;100.00
13734;BME280;43298;52.560;13.508;2023-12-22T02:38:20;96948.56;;;4.64;100.00
13734;BME280;43298;52.560;13.508;2023-12-22T02:40:47;96944.38;;;4.74;100.00
13734;BME280;43298;52.560;13.508;2023-12-22T02:43:13;96953.66;;;4.75;100.00
13734;BME280;43298;52.560;13.508;2023-12-22T02:45:38;96947.38;;;4.79;100.00
13734;BME280;43298;52.560;13.508;2023-12-22T02:48:05;96940.38;;;4.81;100.00
13734;BME280;43298;52.560;13.508;2023-12-22T02:50:31;96941.31;;;4.80;100.00
13734;BME280;43298;52.560;13.508;2023-12-22T02:52:56;96952.28;;;4.71;100.00
13734;BME280;43298;52.560;13.508;2023-12-22T02:55:22;96940.66;;;4.67;100.00
13734;BME280;43298;52.560;13.508;2023-12-22T02:57:48;96934.97;;;4.63;100.00
13734;BME280;43298;52.560;13.508;2023-12-22T03:00:14;96933.13;;;4.54;100.00
13734;BME280;43298;52.560;13.508;2023-12-22T03:02:40;96936.13;;;4.59;100.00
13734;BME280;43298;52.560;13.508;2023-12-22T03:05:06;96912.28;;;4.59;100.00
13734;BME280;43298;52.560;13.508;2023-12-22T03:07:32;96937.97;;;4.57;100.00
13734;BME280;43298;52.560;13.508;2023-12-22T03:09:57;96933.25;;;4.53;100.00
13734;BME280;43298;52.560;13.508;2023-12-22T03:12:23;96940.22;;;4.51;100.00
13734;BME280;43298;52.560;13.508;2023-12-22T03:14:49;96940.00;;;4.54;100.00
13734;BME280;43298;52.560;13.508;2023-12-22T03:17:15;96916.75;;;4.46;100.00
13734;BME280;43298;52.560;13.508;2023-12-22T03:19:40;96922.66;;;4.46;100.00
13734;BME280;43298;52.560;13.508;2023-12-22T03:22:06;96912.91;;;4.51;100.00
13734;BME280;43298;52.560;13.508;2023-12-22T03:24:32;96920.94;;;4.47;100.00
13734;BME280;43298;52.560;13.508;2023-12-22T03:26:59;96935.94;;;4.51;100.00
13734;BME280;43298;52.560;13.508;2023-12-22T03:29:24;96919.75;;;4.51;100.00
13734;BME280;43298;52.560;13.508;2023-12-22T03:31:50;96922.19;;;4.52;100.00
13734;BME280;43298;52.560;13.508;2023-12-22T03:34:16;96932.75;;;4.59;100.00
13734;BME280;43298;52.560;13.508;2023-12-22T03:36:42;96912.19;;;4.49;100.00
13734;BME280;43298;52.560;13.508;2023-12-22T03:39:08;96919.44;;;4.44;100.00
13734;BME280;43298;52.560;13.508;2023-12-22T03:41:33;96905.81;;;4.44;100.00
13734;BME280;43298;52.560;13.508;2023-12-22T03:43:59;96910.38;;;4.40;100.00
13734;BME280;43298;52.560;13.508;2023-12-22T03:46:25;96901.19;;;4.38;100.00
13734;BME280;43298;52.560;13.508;2023-12-22T03:48:51;96906.78;;;4.32;100.00
13734;BME280;43298;52.560;13.508;2023-12-22T03:51:17;96904.00;;;4.35;100.00
13734;BME280;43298;52.560;13.508;2023-12-22T03:53:43;96902.19;;;4.57;100.00
13734;BME280;43298;52.560;13.508;2023-12-22T03:56:09;96906.97;;;4.51;100.00
13734;BME280;43298;52.560;13.508;2023-12-22T03:58:36;96911.66;;;4.46;100.00
13734;BME280;43298;52.560;13.508;2023-12-22T04:01:02;96910.13;;;4.54;100.00
13734;BME280;43298;52.560;13.508;2023-12-22T04:03:28;96914.16;;;4.57;100.00
13734;BME280;43298;52.560;13.508;2023-12-22T04:05:54;96910.47;;;4.50;100.00
13734;BME280;43298;52.560;13.508;2023-12-22T04:08:20;96915.59;;;4.50;100.00
13734;BME280;43298;52.560;13.508;2023-12-22T04:10:47;96930.09;;;4.49;100.00
13734;BME280;43298;52.560;13.508;2023-12-22T04:13:13;96904.84;;;4.56;100.00
13734;BME280;43298;52.560;13.508;2023-12-22T04:15:39;96911.63;;;4.57;100.00
13734;BME280;43298;52.560;13.508;2023-12-22T04:18:04;96900.88;;;4.63;100.00
13734;BME280;43298;52.560;13.508;2023-12-22T04:20:30;96896.47;;;4.65;100.00
13734;BME280;43298;52.560;13.508;2023-12-22T04:22:57;96923.34;;;4.59;100.00
13734;BME280;43298;52.560;13.508;2023-12-22T04:25:23;96901.84;;;4.51;100.00
13734;BME280;43298;52.560;13.508;2023-12-22T04:27:53;96894.22;;;4.40;100.00
13734;BME280;43298;52.560;13.508;2023-12-22T04:30:19;96903.28;;;4.33;100.00
13734;BME280;43298;52.560;13.508;2023-12-22T04:32:45;96889.25;;;4.27;100.00
13734;BME280;43298;52.560;13.508;2023-12-22T04:35:11;96883.44;;;4.25;100.00
13734;BME280;43298;52.560;13.508;2023-12-22T04:37:37;96875.44;;;4.19;100.00
13734;BME280;43298;52.560;13.508;2023-12-22T04:40:03;96869.75;;;4.15;100.00
13734;BME280;43298;52.560;13.508;2023-12-22T04:42:29;96867.75;;;4.19;100.00
13734;BME280;43298;52.560;13.508;2023-12-22T04:44:55;96866.94;;;4.18;100.00
13734;BME280;43298;52.560;13.508;2023-12-22T04:47:21;96858.81;;;4.13;100.00
13734;BME280;43298;52.560;13.508;2023-12-22T04:49:47;96856.97;;;4.15;100.00
13734;BME280;43298;52.560;13.508;2023-12-22T04:52:13;96852.31;;;4.20;100.00
13734;BME280;43298;52.560;13.508;2023-12-22T04:54:39;96867.66;;;4.20;100.00
13734;BME280;43298;52.560;13.508;2023-12-22T04:57:04;96847.19;;;4.20;100.00
13734;BME280;43298;52.560;13.508;2023-12-22T04:59:30;96845.50;;;4.10;100.00
13734;BME280;43298;52.560;13.508;2023-12-22T05:01:57;96825.97;;;3.98;100.00
13734;BME280;43298;52.560;13.508;2023-12-22T05:04:23;96831.56;;;3.92;100.00
13734;BME280;43298;52.560;13.508;2023-12-22T05:06:49;96812.97;;;4.01;100.00
13734;BME280;43298;52.560;13.508;2023-12-22T05:09:16;96816.22;;;3.92;100.00
13734;BME280;43298;52.560;13.508;2023-12-22T05:11:42;96809.84;;;3.86;100.00
13734;BME280;43298;52.560;13.508;2023-12-22T05:14:10;96818.78;;;3.81;100.00
13734;BME280;43298;52.560;13.508;2023-12-22T05:16:36;96821.47;;;3.79;100.00
13734;BME280;43298;52.560;13.508;2023-12-22T05:19:02;96804.75;;;3.75;100.00
13734;BME280;43298;52.560;13.508;2023-12-22T05:21:28;96793.28;;;3.70;100.00
13734;BME280;43298;52.560;13.508;2023-12-22T05:23:55;96785.59;;;3.70;100.00
13734;BME280;43298;52.560;13.508;2023-12-22T05:26:21;96781.00;;;3.64;100.00
13734;BME280;43298;52.560;13.508;2023-12-22T05:28:48;96789.22;;;3.56;100.00
13734;BME280;43298;52.560;13.508;2023-12-22T05:31:16;96780.75;;;3.56;100.00
13734;BME280;43298;52.560;13.508;2023-12-22T05:33:42;96792.50;;;3.58;100.00
13734;BME280;43298;52.560;13.508;2023-12-22T05:36:08;96802.81;;;3.57;100.00
13734;BME280;43298;52.560;13.508;2023-12-22T05:38:38;96797.69;;;3.68;100.00
13734;BME280;43298;52.560;13.508;2023-12-22T05:41:04;96792.72;;;3.66;100.00
13734;BME280;43298;52.560;13.508;2023-12-22T05:43:32;96795.72;;;3.60;100.00
13734;BME280;43298;52.560;13.508;2023-12-22T05:45:59;96789.34;;;3.66;100.00
13734;BME280;43298;52.560;13.508;2023-12-22T05:48:26;96771.94;;;3.71;100.00
13734;BME280;43298;52.560;13.508;2023-12-22T05:50:56;96774.72;;;3.68;100.00
13734;BME280;43298;52.560;13.508;2023-12-22T05:53:23;96798.25;;;3.71;100.00
13734;BME280;43298;52.560;13.508;2023-12-22T05:55:48;96785.84;;;3.67;100.00
13734;BME280;43298;52.560;13.508;2023-12-22T05:58:14;96799.78;;;3.63;100.00
13734;BME280;43298;52.560;13.508;2023-12-22T06:00:40;96789.69;;;3.61;100.00
13734;BME280;43298;52.560;13.508;2023-12-22T06:03:06;96785.41;;;3.62;100.00
13734;BME280;43298;52.560;13.508;2023-12-22T06:05:32;96782.38;;;3.68;100.00
13734;BME280;43298;52.560;13.508;2023-12-22T06:07:58;96795.50;;;3.63;100.00
13734;BME280;43298;52.560;13.508;2023-12-22T06:10:24;96792.59;;;3.68;100.00
13734;BME280;43298;52.560;13.508;2023-12-22T06:12:50;96801.97;;;3.67;100.00
13734;BME280;43298;52.560;13.508;2023-12-22T06:15:16;96809.75;;;3.77;100.00
13734;BME280;43298;52.560;13.508;2023-12-22T06:17:42;96801.72;;;3.81;100.00
13734;BME280;43298;52.560;13.508;2023-12-22T06:20:08;96802.06;;;3.88;100.00
13734;BME280;43298;52.560;13.508;2023-12-22T06:22:34;96810.00;;;3.85;100.00
13734;BME280;43298;52.560;13.508;2023-12-22T06:25:00;96807.56;;;3.83;100.00
13734;BME280;43298;52.560;13.508;2023-12-22T06:27:28;96808.00;;;3.77;100.00
13734;BME280;43298;52.560;13.508;2023-12-22T06:29:54;96808.56;;;3.81;100.00
13734;BME280;43298;52.560;13.508;2023-12-22T06:32:21;96824.97;;;3.78;100.00
13734;BME280;43298;52.560;13.508;2023-12-22T06:34:47;96829.50;;;3.75;100.00
13734;BME280;43298;52.560;13.508;2023-12-22T06:37:12;96834.63;;;3.75;100.00
13734;BME280;43298;52.560;13.508;2023-12-22T06:39:38;96825.31;;;3.85;100.00
13734;BME280;43298;52.560;13.508;2023-12-22T06:42:04;96853.88;;;3.90;100.00
13734;BME280;43298;52.560;13.508;2023-12-22T06:44:37;96859.09;;;3.99;100.00
13734;BME280;43298;52.560;13.508;2023-12-22T06:47:03;96873.34;;;4.02;100.00
13734;BME280;43298;52.560;13.508;2023-12-22T06:49:29;96881.25;;;3.99;100.00
13734;BME280;43298;52.560;13.508;2023-12-22T06:51:54;96892.31;;;3.99;100.00
13734;BME280;43298;52.560;13.508;2023-12-22T06:54:20;96894.19;;;3.97;100.00
13734;BME280;43298;52.560;13.508;2023-12-22T06:56:46;96905.81;;;3.90;100.00
13734;BME280;43298;52.560;13.508;2023-12-22T06:59:11;96895.69;;;3.78;100.00
13734;BME280;43298;52.560;13.508;2023-12-22T07:01:38;96911.13;;;3.65;100.00
13734;BME280;43298;52.560;13.508;2023-12-22T07:04:04;96924.69;;;3.55;100.00
13734;BME280;43298;52.560;13.508;2023-12-22T07:06:33;96907.47;;;3.35;100.00
13734;BME280;43298;52.560;13.508;2023-12-22T07:11:52;96916.91;;;2.99;100.00
13734;BME280;43298;52.560;13.508;2023-12-22T07:14:18;96917.56;;;2.90;100.00
13734;BME280;43298;52.560;13.508;2023-12-22T07:16:44;96907.00;;;2.84;100.00
13734;BME280;43298;52.560;13.508;2023-12-22T07:19:10;96912.09;;;2.84;100.00
13734;BME280;43298;52.560;13.508;2023-12-22T07:21:40;96897.38;;;2.87;100.00
13734;BME280;43298;52.560;13.508;2023-12-22T07:24:06;96884.63;;;2.87;100.00
13734;BME280;43298;52.560;13.508;2023-12-22T07:26:32;96882.69;;;2.91;100.00
13734;BME280;43298;52.560;13.508;2023-12-22T07:28:58;96874.91;;;2.92;100.00
13734;BME280;43298;52.560;13.508;2023-12-22T07:31:24;96884.31;;;3.03;100.00
13734;BME280;43298;52.560;13.508;2023-12-22T07:33:51;96859.88;;;3.11;100.00
13734;BME280;43298;52.560;13.508;2023-12-22T07:36:17;96848.19;;;3.20;100.00
13734;BME280;43298;52.560;13.508;2023-12-22T07:38:47;96861.41;;;3.25;100.00
13734;BME280;43298;52.560;13.508;2023-12-22T07:41:12;96853.19;;;3.33;100.00
13734;BME280;43298;52.560;13.508;2023-12-22T07:43:38;96841.47;;;3.41;100.00
13734;BME280;43298;52.560;13.508;2023-12-22T07:46:04;96849.34;;;3.49;100.00
13734;BME280;43298;52.560;13.508;2023-12-22T07:48:30;96850.06;;;3.51;100.00
13734;BME280;43298;52.560;13.508;2023-12-22T07:50:56;96839.25;;;3.59;100.00
13734;BME280;43298;52.560;13.508;2023-12-22T07:53:22;96852.72;;;3.61;100.00
13734;BME280;43298;52.560;13.508;2023-12-22T07:55:47;96846.47;;;3.65;100.00
13734;BME280;43298;52.560;13.508;2023-12-22T07:58:13;96843.91;;;3.76;100.00
13734;BME280;43298;52.560;13.508;2023-12-22T08:00:40;96852.84;;;3.81;100.00
13734;BME280;43298;52.560;13.508;2023-12-22T08:03:06;96854.81;;;3.89;100.00
13734;BME280;43298;52.560;13.508;2023-12-22T08:05:31;96862.94;;;3.83;100.00
13734;BME280;43298;52.560;13.508;2023-12-22T08:07:58;96868.97;;;3.82;100.00
13734;BME280;43298;52.560;13.508;2023-12-22T08:10:24;96882.56;;;3.82;100.00
13734;BME280;43298;52.560;13.508;2023-12-22T08:12:50;96879.44;;;3.90;100.00
13734;BME280;43298;52.560;13.508;2023-12-22T08:15:16;96890.47;;;3.90;100.00
13734;BME280;43298;52.560;13.508;2023-12-22T08:17:48;96899.41;;;3.85;100.00
13734;BME280;43298;52.560;13.508;2023-12-22T08:20:19;96906.81;;;3.88;100.00
13734;BME280;43298;52.560;13.508;2023-12-22T08:22:49;96910.53;;;3.84;100.00
13734;BME280;43298;52.560;13.508;2023-12-22T08:25:16;96934.47;;;3.83;100.00
13734;BME280;43298;52.560;13.508;2023-12-22T08:27:42;96938.53;;;3.85;100.00
13734;BME280;43298;52.560;13.508;2023-12-22T08:30:12;96954.81;;;3.84;100.00
13734;BME280;43298;52.560;13.508;2023-12-22T08:32:38;96936.91;;;3.84;100.00
13734;BME280;43298;52.560;13.508;2023-12-22T08:35:05;96965.59;;;3.88;100.00
13734;BME280;43298;52.560;13.508;2023-12-22T08:37:31;96972.56;;;3.86;100.00
13734;BME280;43298;52.560;13.508;2023-12-22T08:39:57;96993.13;;;3.95;100.00
13734;BME280;43298;52.560;13.508;2023-12-22T08:42:24;96998.25;;;3.95;100.00
13734;BME280;43298;52.560;13.508;2023-12-22T08:44:50;97017.19;;;3.93;100.00
13734;BME280;43298;52.560;13.508;2023-12-22T08:47:16;97019.97;;;3.90;100.00
13734;BME280;43298;52.560;13.508;2023-12-22T08:49:42;97028.56;;;3.89;100.00
13734;BME280;43298;52.560;13.508;2023-12-22T08:52:08;97021.47;;;3.92;100.00
13734;BME280;43298;52.560;13.508;2023-12-22T08:54:34;97030.06;;;3.91;100.00
13734;BME280;43298;52.560;13.508;2023-12-22T08:57:02;97044.13;;;3.97;100.00
13734;BME280;43298;52.560;13.508;2023-12-22T08:59:28;97055.19;;;3.97;100.00
13734;BME280;43298;52.560;13.508;2023-12-22T09:01:54;97054.81;;;3.91;100.00
13734;BME280;43298;52.560;13.508;2023-12-22T09:04:19;97068.41;;;3.91;100.00
13734;BME280;43298;52.560;13.508;2023-12-22T09:06:51;97064.56;;;3.97;100.00
13734;BME280;43298;52.560;13.508;2023-12-22T09:09:17;97076.44;;;4.09;100.00
13734;BME280;43298;52.560;13.508;2023-12-22T09:11:43;97066.00;;;4.12;100.00
13734;BME280;43298;52.560;13.508;2023-12-22T09:14:10;97084.59;;;4.14;100.00
13734;BME280;43298;52.560;13.508;2023-12-22T09:16:37;97101.78;;;4.23;100.00
13734;BME280;43298;52.560;13.508;2023-12-22T09:19:04;97105.06;;;4.25;100.00
13734;BME280;43298;52.560;13.508;2023-12-22T09:21:30;97116.44;;;4.21;100.00
13734;BME280;43298;52.560;13.508;2023-12-22T09:23:55;97120.63;;;4.22;100.00
13734;BME280;43298;52.560;13.508;2023-12-22T09:26:21;97114.97;;;4.29;100.00
13734;BME280;43298;52.560;13.508;2023-12-22T09:28:48;97141.22;;;4.31;100.00
13734;BME280;43298;52.560;13.508;2023-12-22T09:31:14;97148.78;;;4.33;100.00
13734;BME280;43298;52.560;13.508;2023-12-22T09:33:42;97152.06;;;4.35;100.00
13734;BME280;43298;52.560;13.508;2023-12-22T09:36:09;97164.84;;;4.35;100.00
13734;BME280;43298;52.560;13.508;2023-12-22T09:38:35;97190.41;;;4.35;100.00
13734;BME280;43298;52.560;13.508;2023-12-22T09:41:02;97196.00;;;4.40;100.00
13734;BME280;43298;52.560;13.508;2023-12-22T09:43:28;97201.34;;;4.48;100.00
13734;BME280;43298;52.560;13.508;2023-12-22T09:45:54;97213.38;;;4.58;100.00
13734;BME280;43298;52.560;13.508;2023-12-22T09:48:21;97229.63;;;4.57;100.00
13734;BME280;43298;52.560;13.508;2023-12-22T09:50:53;97258.72;;;4.67;100.00
13734;BME280;43298;52.560;13.508;2023-12-22T09:53:20;97274.91;;;4.68;100.00
13734;BME280;43298;52.560;13.508;2023-12-22T09:55:47;97273.81;;;4.59;100.00
13734;BME280;43298;52.560;13.508;2023-12-22T09:58:14;97266.25;;;4.58;100.00
13734;BME280;43298;52.560;13.508;2023-12-22T10:00:43;97293.03;;;4.65;100.00
13734;BME280;43298;52.560;13.508;2023-12-22T10:03:11;97298.41;;;4.73;100.00
13734;BME280;43298;52.560;13.508;2023-12-22T10:05:41;97300.97;;;4.84;100.00
13734;BME280;43298;52.560;13.508;2023-12-22T10:08:09;97306.81;;;4.86;100.00
13734;BME280;43298;52.560;13.508;2023-12-22T10:10:39;97319.41;;;4.89;100.00
13734;BME280;43298;52.560;13.508;2023-12-22T10:13:09;97333.16;;;4.99;100.00
13734;BME280;43298;52.560;13.508;2023-12-22T10:15:42;97338.97;;;5.01;100.00
13734;BME280;43298;52.560;13.508;2023-12-22T10:18:09;97363.88;;;4.99;100.00
13734;BME280;43298;52.560;13.508;2023-12-22T10:20:36;97362.00;;;5.01;100.00
13734;BME280;43298;52.560;13.508;2023-12-22T10:23:02;97352.69;;;5.00;100.00
13734;BME280;43298;52.560;13.508;2023-12-22T10:25:29;97356.19;;;4.99;100.00
13734;BME280;43298;52.560;13.508;2023-12-22T10:27:55;97370.63;;;5.00;100.00
13734;BME280;43298;52.560;13.508;2023-12-22T10:30:22;97383.63;;;4.97;100.00
13734;BME280;43298;52.560;13.508;2023-12-22T10:32:51;97360.59;;;4.97;100.00
13734;BME280;43298;52.560;13.508;2023-12-22T10:35:17;97386.22;;;5.08;100.00
13734;BME280;43298;52.560;13.508;2023-12-22T10:37:45;97376.22;;;5.16;100.00
13734;BME280;43298;52.560;13.508;2023-12-22T10:40:12;97394.28;;;5.14;100.00
13734;BME280;43298;52.560;13.508;2023-12-22T10:42:39;97386.59;;;5.14;100.00
13734;BME280;43298;52.560;13.508;2023-12-22T10:45:06;97421.31;;;5.18;100.00
13734;BME280;43298;52.560;13.508;2023-12-22T10:47:32;97419.56;;;5.19;100.00
13734;BME280;43298;52.560;13.508;2023-12-22T10:50:02;97428.75;;;5.21;100.00
13734;BME280;43298;52.560;13.508;2023-12-22T10:52:29;97422.03;;;5.31;100.00
13734;BME280;43298;52.560;13.508;2023-12-22T10:54:58;97447.09;;;5.39;100.00
13734;BME280;43298;52.560;13.508;2023-12-22T10:57:24;97463.25;;;5.39;100.00
13734;BME280;43298;52.560;13.508;2023-12-22T10:59:53;97449.25;;;5.32;100.00
13734;BME280;43298;52.560;13.508;2023-12-22T11:02:22;97463.00;;;5.31;100.00
13734;BME280;43298;52.560;13.508;2023-12-22T11:05:01;97455.56;;;5.39;100.00
13734;BME280;43298;52.560;13.508;2023-12-22T11:07:28;97456.06;;;5.44;100.00
13734;BME280;43298;52.560;13.508;2023-12-22T11:10:03;97469.72;;;5.45;100.00
13734;BME280;43298;52.560;13.508;2023-12-22T11:12:38;97465.75;;;5.52;100.00
13734;BME280;43298;52.560;13.508;2023-12-22T11:15:05;97483.34;;;5.56;100.00
13734;BME280;43298;52.560;13.508;2023-12-22T11:17:33;97480.09;;;5.54;100.00
13734;BME280;43298;52.560;13.508;2023-12-22T11:20:08;97487.06;;;5.52;100.00
13734;BME280;43298;52.560;13.508;2023-12-22T11:22:36;97499.03;;;5.41;100.00
13734;BME280;43298;52.560;13.508;2023-12-22T11:25:03;97494.16;;;5.38;100.00
13734;BME280;43298;52.560;13.508;2023-12-22T11:27:33;97494.94;;;5.38;100.00
13734;BME280;43298;52.560;13.508;2023-12-22T11:30:01;97507.22;;;5.46;100.00
13734;BME280;43298;52.560;13.508;2023-12-22T11:32:29;97496.13;;;5.45;100.00
13734;BME280;43298;52.560;13.508;2023-12-22T11:34:55;97504.03;;;5.42;100.00
13734;BME280;43298;52.560;13.508;2023-12-22T11:37:22;97502.88;;;5.46;100.00
13734;BME280;43298;52.560;13.508;2023-12-22T11:39:48;97495.69;;;5.51;100.00
13734;BME280;43298;52.560;13.508;2023-12-22T11:42:47;97512.69;;;5.52;100.00
13734;BME280;43298;52.560;13.508;2023-12-22T11:45:14;97534.94;;;5.52;100.00
13734;BME280;43298;52.560;13.508;2023-12-22T11:47:46;97524.25;;;5.58;100.00
13734;BME280;43298;52.560;13.508;2023-12-22T11:50:13;97519.63;;;5.63;100.00
13734;BME280;43298;52.560;13.508;2023-12-22T11:52:53;97538.84;;;5.68;100.00
13734;BME280;43298;52.560;13.508;2023-12-22T11:56:01;97572.50;;;5.64;100.00
13734;BME280;43298;52.560;13.508;2023-12-22T11:58:47;97561.22;;;5.77;100.00
13734;BME280;43298;52.560;13.508;2023-12-22T12:01:25;97562.56;;;5.83;100.00
13734;BME280;43298;52.560;13.508;2023-12-22T12:04:02;97590.69;;;5.72;100.00
13734;BME280;43298;52.560;13.508;2023-12-22T12:08:56;97593.50;;;5.80;100.00
13734;BME280;43298;52.560;13.508;2023-12-22T12:11:23;97590.25;;;5.78;100.00
13734;BME280;43298;52.560;13.508;2023-12-22T12:13:50;97585.13;;;5.78;100.00
13734;BME280;43298;52.560;13.508;2023-12-22T12:16:20;97568.13;;;5.77;100.00
13734;BME280;43298;52.560;13.508;2023-12-22T12:18:47;97573.13;;;5.78;100.00
13734;BME280;43298;52.560;13.508;2023-12-22T12:21:15;97573.47;;;5.74;100.00
13734;BME280;43298;52.560;13.508;2023-12-22T12:23:42;97582.44;;;5.68;100.00
13734;BME280;43298;52.560;13.508;2023-12-22T12:26:08;97564.81;;;5.64;100.00
13734;BME280;43298;52.560;13.508;2023-12-22T12:28:36;97551.78;;;5.67;100.00
13734;BME280;43298;52.560;13.508;2023-12-22T12:31:07;97557.97;;;5.75;100.00
13734;BME280;43298;52.560;13.508;2023-12-22T12:33:35;97553.97;;;5.71;100.00
13734;BME280;43298;52.560;13.508;2023-12-22T12:36:02;97566.69;;;5.73;100.00
13734;BME280;43298;52.560;13.508;2023-12-22T12:39:01;97572.50;;;5.64;100.00
13734;BME280;43298;52.560;13.508;2023-12-22T12:41:42;97555.94;;;5.57;100.00
13734;BME280;43298;52.560;13.508;2023-12-22T12:44:10;97573.38;;;5.52;100.00
13734;BME280;43298;52.560;13.508;2023-12-22T12:46:38;97573.81;;;5.46;100.00
13734;BME280;43298;52.560;13.508;2023-12-22T12:49:08;97559.25;;;5.46;100.00
13734;BME280;43298;52.560;13.508;2023-12-22T12:51:39;97537.94;;;5.46;100.00
13734;BME280;43298;52.560;13.508;2023-12-22T12:54:06;97548.19;;;5.46;100.00
13734;BME280;43298;52.560;13.508;2023-12-22T12:56:46;97532.84;;;5.46;100.00